sensor_id;sensor_type;location;lat;lon;timestamp;P1;durP1;ratioP1;P2;durP2;ratioP2
30519;SDS011;17300;50.374;8.006;2022-09-16T00:01:47;1.00;;;0.60;;
30519;SDS011;17300;50.374;8.006;2022-09-16T00:04:15;1.73;;;0.67;;
30519;SDS011;17300;50.374;8.006;2022-09-16T00:06:42;1.63;;;0.90;;
30519;SDS011;17300;50.374;8.006;2022-09-16T00:09:09;1.10;;;0.60;;
30519;SDS011;17300;50.374;8.006;2022-09-16T00:11:35;2.23;;;0.70;;
30519;SDS011;17300;50.374;8.006;2022-09-16T00:14:02;2.57;;;0.73;;
30519;SDS011;17300;50.374;8.006;2022-09-16T00:16:29;2.00;;;0.70;;
30519;SDS011;17300;50.374;8.006;2022-09-16T00:18:58;2.00;;;0.73;;
30519;SDS011;17300;50.374;8.006;2022-09-16T00:21:26;1.37;;;0.70;;
30519;SDS011;17300;50.374;8.006;2022-09-16T00:23:54;1.47;;;0.77;;
30519;SDS011;17300;50.374;8.006;2022-09-16T00:26:21;1.17;;;0.60;;
30519;SDS011;17300;50.374;8.006;2022-09-16T00:28:48;1.77;;;0.80;;
30519;SDS011;17300;50.374;8.006;2022-09-16T00:31:15;2.03;;;0.70;;
30519;SDS011;17300;50.374;8.006;2022-09-16T00:33:42;1.67;;;0.60;;
30519;SDS011;17300;50.374;8.006;2022-09-16T00:36:11;1.57;;;0.70;;
30519;SDS011;17300;50.374;8.006;2022-09-16T00:38:39;1.27;;;0.60;;
30519;SDS011;17300;50.374;8.006;2022-09-16T00:41:07;2.37;;;0.80;;
30519;SDS011;17300;50.374;8.006;2022-09-16T00:46:29;0.70;;;0.50;;
30519;SDS011;17300;50.374;8.006;2022-09-16T00:49:00;0.83;;;0.60;;
30519;SDS011;17300;50.374;8.006;2022-09-16T00:51:31;2.00;;;0.93;;
30519;SDS011;17300;50.374;8.006;2022-09-16T00:53:59;0.83;;;0.50;;
30519;SDS011;17300;50.374;8.006;2022-09-16T00:56:29;0.97;;;0.47;;
30519;SDS011;17300;50.374;8.006;2022-09-16T00:59:01;1.77;;;0.70;;
30519;SDS011;17300;50.374;8.006;2022-09-16T01:01:32;1.47;;;0.60;;
30519;SDS011;17300;50.374;8.006;2022-09-16T01:04:01;1.57;;;0.80;;
30519;SDS011;17300;50.374;8.006;2022-09-16T01:06:49;1.77;;;0.70;;
30519;SDS011;17300;50.374;8.006;2022-09-16T01:09:16;2.03;;;0.70;;
30519;SDS011;17300;50.374;8.006;2022-09-16T01:11:46;1.40;;;0.60;;
30519;SDS011;17300;50.374;8.006;2022-09-16T01:14:12;1.77;;;0.87;;
30519;SDS011;17300;50.374;8.006;2022-09-16T01:17:00;2.07;;;0.80;;
30519;SDS011;17300;50.374;8.006;2022-09-16T01:19:37;1.13;;;0.70;;
30519;SDS011;17300;50.374;8.006;2022-09-16T01:22:16;1.17;;;0.70;;
30519;SDS011;17300;50.374;8.006;2022-09-16T01:24:58;0.83;;;0.53;;
30519;SDS011;17300;50.374;8.006;2022-09-16T01:27:50;1.53;;;0.83;;
30519;SDS011;17300;50.374;8.006;2022-09-16T01:30:47;1.33;;;0.67;;
30519;SDS011;17300;50.374;8.006;2022-09-16T01:33:26;1.27;;;0.80;;
30519;SDS011;17300;50.374;8.006;2022-09-16T01:36:08;2.47;;;0.80;;
30519;SDS011;17300;50.374;8.006;2022-09-16T01:38:47;1.77;;;0.60;;
30519;SDS011;17300;50.374;8.006;2022-09-16T01:41:23;0.53;;;0.47;;
30519;SDS011;17300;50.374;8.006;2022-09-16T01:43:58;1.37;;;0.70;;
30519;SDS011;17300;50.374;8.006;2022-09-16T01:46:34;1.03;;;0.60;;
30519;SDS011;17300;50.374;8.006;2022-09-16T01:49:11;2.67;;;1.00;;
30519;SDS011;17300;50.374;8.006;2022-09-16T01:51:45;0.87;;;0.80;;
30519;SDS011;17300;50.374;8.006;2022-09-16T01:54:19;0.83;;;0.67;;
30519;SDS011;17300;50.374;8.006;2022-09-16T01:56:53;0.50;;;0.50;;
30519;SDS011;17300;50.374;8.006;2022-09-16T01:59:27;1.47;;;0.70;;
30519;SDS011;17300;50.374;8.006;2022-09-16T02:02:05;1.17;;;0.70;;
30519;SDS011;17300;50.374;8.006;2022-09-16T02:04:38;0.87;;;0.57;;
30519;SDS011;17300;50.374;8.006;2022-09-16T02:07:09;1.67;;;0.73;;
30519;SDS011;17300;50.374;8.006;2022-09-16T02:09:40;1.40;;;0.80;;
30519;SDS011;17300;50.374;8.006;2022-09-16T02:12:11;0.40;;;0.40;;
30519;SDS011;17300;50.374;8.006;2022-09-16T02:14:43;1.40;;;0.80;;
30519;SDS011;17300;50.374;8.006;2022-09-16T02:17:15;1.67;;;0.63;;
30519;SDS011;17300;50.374;8.006;2022-09-16T02:19:45;1.63;;;0.60;;
30519;SDS011;17300;50.374;8.006;2022-09-16T02:22:17;0.50;;;0.50;;
30519;SDS011;17300;50.374;8.006;2022-09-16T02:24:47;1.67;;;0.60;;
30519;SDS011;17300;50.374;8.006;2022-09-16T02:27:15;1.07;;;0.57;;
30519;SDS011;17300;50.374;8.006;2022-09-16T02:29:46;1.67;;;0.80;;
30519;SDS011;17300;50.374;8.006;2022-09-16T02:32:19;1.57;;;0.83;;
30519;SDS011;17300;50.374;8.006;2022-09-16T02:34:49;1.60;;;0.60;;
30519;SDS011;17300;50.374;8.006;2022-09-16T02:37:19;1.43;;;0.83;;
30519;SDS011;17300;50.374;8.006;2022-09-16T02:39:51;2.77;;;1.00;;
30519;SDS011;17300;50.374;8.006;2022-09-16T02:42:21;1.47;;;0.73;;
30519;SDS011;17300;50.374;8.006;2022-09-16T02:44:48;2.00;;;0.97;;
30519;SDS011;17300;50.374;8.006;2022-09-16T02:47:16;1.13;;;0.50;;
30519;SDS011;17300;50.374;8.006;2022-09-16T02:49:51;1.57;;;0.73;;
30519;SDS011;17300;50.374;8.006;2022-09-16T02:52:21;1.33;;;0.60;;
30519;SDS011;17300;50.374;8.006;2022-09-16T02:54:53;1.00;;;0.60;;
30519;SDS011;17300;50.374;8.006;2022-09-16T02:57:26;1.27;;;0.60;;
30519;SDS011;17300;50.374;8.006;2022-09-16T02:59:53;2.17;;;0.80;;
30519;SDS011;17300;50.374;8.006;2022-09-16T03:02:21;2.80;;;0.83;;
30519;SDS011;17300;50.374;8.006;2022-09-16T03:04:48;3.43;;;0.90;;
30519;SDS011;17300;50.374;8.006;2022-09-16T03:07:15;1.13;;;0.63;;
30519;SDS011;17300;50.374;8.006;2022-09-16T03:09:43;1.37;;;0.57;;
30519;SDS011;17300;50.374;8.006;2022-09-16T03:12:24;0.97;;;0.70;;
30519;SDS011;17300;50.374;8.006;2022-09-16T03:15:19;1.03;;;0.63;;
30519;SDS011;17300;50.374;8.006;2022-09-16T03:18:24;0.93;;;0.63;;
30519;SDS011;17300;50.374;8.006;2022-09-16T03:21:15;1.57;;;0.67;;
30519;SDS011;17300;50.374;8.006;2022-09-16T03:23:47;1.33;;;0.73;;
30519;SDS011;17300;50.374;8.006;2022-09-16T03:26:22;0.83;;;0.60;;
30519;SDS011;17300;50.374;8.006;2022-09-16T03:28:59;0.93;;;0.70;;
30519;SDS011;17300;50.374;8.006;2022-09-16T03:31:34;2.43;;;0.77;;
30519;SDS011;17300;50.374;8.006;2022-09-16T03:34:11;1.03;;;0.90;;
30519;SDS011;17300;50.374;8.006;2022-09-16T03:36:42;1.90;;;0.80;;
30519;SDS011;17300;50.374;8.006;2022-09-16T03:39:12;1.53;;;0.70;;
30519;SDS011;17300;50.374;8.006;2022-09-16T03:41:39;1.40;;;0.63;;
30519;SDS011;17300;50.374;8.006;2022-09-16T03:44:06;1.63;;;0.63;;
30519;SDS011;17300;50.374;8.006;2022-09-16T03:46:33;2.27;;;1.03;;
30519;SDS011;17300;50.374;8.006;2022-09-16T03:49:00;1.10;;;0.63;;
30519;SDS011;17300;50.374;8.006;2022-09-16T03:51:28;1.53;;;0.60;;
30519;SDS011;17300;50.374;8.006;2022-09-16T03:53:54;1.07;;;0.70;;
30519;SDS011;17300;50.374;8.006;2022-09-16T03:56:21;2.97;;;0.63;;
30519;SDS011;17300;50.374;8.006;2022-09-16T03:58:49;1.30;;;0.77;;
30519;SDS011;17300;50.374;8.006;2022-09-16T04:01:16;1.67;;;0.90;;
30519;SDS011;17300;50.374;8.006;2022-09-16T04:03:42;1.07;;;0.60;;
30519;SDS011;17300;50.374;8.006;2022-09-16T04:06:09;1.80;;;0.73;;
30519;SDS011;17300;50.374;8.006;2022-09-16T04:08:37;0.87;;;0.60;;
30519;SDS011;17300;50.374;8.006;2022-09-16T04:11:04;1.00;;;0.80;;
30519;SDS011;17300;50.374;8.006;2022-09-16T04:13:32;2.17;;;0.70;;
30519;SDS011;17300;50.374;8.006;2022-09-16T04:16:00;1.20;;;0.70;;
30519;SDS011;17300;50.374;8.006;2022-09-16T04:18:29;5.30;;;1.00;;
30519;SDS011;17300;50.374;8.006;2022-09-16T04:20:56;2.53;;;0.90;;
30519;SDS011;17300;50.374;8.006;2022-09-16T04:23:23;2.10;;;1.10;;
30519;SDS011;17300;50.374;8.006;2022-09-16T04:25:55;2.27;;;0.87;;
30519;SDS011;17300;50.374;8.006;2022-09-16T04:28:22;1.73;;;0.87;;
30519;SDS011;17300;50.374;8.006;2022-09-16T04:30:49;1.80;;;0.83;;
30519;SDS011;17300;50.374;8.006;2022-09-16T04:33:16;1.70;;;0.73;;
30519;SDS011;17300;50.374;8.006;2022-09-16T04:35:43;2.07;;;0.83;;
30519;SDS011;17300;50.374;8.006;2022-09-16T04:38:10;1.87;;;0.97;;
30519;SDS011;17300;50.374;8.006;2022-09-16T04:40:36;1.27;;;0.90;;
30519;SDS011;17300;50.374;8.006;2022-09-16T04:43:05;0.80;;;0.70;;
30519;SDS011;17300;50.374;8.006;2022-09-16T04:45:32;1.27;;;0.90;;
30519;SDS011;17300;50.374;8.006;2022-09-16T04:47:58;0.93;;;0.80;;
30519;SDS011;17300;50.374;8.006;2022-09-16T04:50:25;2.20;;;1.10;;
30519;SDS011;17300;50.374;8.006;2022-09-16T04:52:52;1.70;;;0.87;;
30519;SDS011;17300;50.374;8.006;2022-09-16T04:55:19;2.23;;;0.97;;
30519;SDS011;17300;50.374;8.006;2022-09-16T04:57:47;2.70;;;0.97;;
30519;SDS011;17300;50.374;8.006;2022-09-16T05:00:15;1.70;;;0.90;;
30519;SDS011;17300;50.374;8.006;2022-09-16T05:02:42;2.07;;;0.90;;
30519;SDS011;17300;50.374;8.006;2022-09-16T05:05:09;1.13;;;0.80;;
30519;SDS011;17300;50.374;8.006;2022-09-16T05:07:36;1.67;;;0.80;;
30519;SDS011;17300;50.374;8.006;2022-09-16T05:10:03;1.07;;;0.90;;
30519;SDS011;17300;50.374;8.006;2022-09-16T05:12:30;1.70;;;0.70;;
30519;SDS011;17300;50.374;8.006;2022-09-16T05:14:57;1.63;;;0.90;;
30519;SDS011;17300;50.374;8.006;2022-09-16T05:17:25;1.10;;;0.70;;
30519;SDS011;17300;50.374;8.006;2022-09-16T05:19:55;1.50;;;0.80;;
30519;SDS011;17300;50.374;8.006;2022-09-16T05:22:22;1.33;;;0.83;;
30519;SDS011;17300;50.374;8.006;2022-09-16T05:24:48;1.17;;;0.93;;
30519;SDS011;17300;50.374;8.006;2022-09-16T05:27:15;1.83;;;1.00;;
30519;SDS011;17300;50.374;8.006;2022-09-16T05:29:42;2.70;;;0.97;;
30519;SDS011;17300;50.374;8.006;2022-09-16T05:32:08;2.03;;;1.37;;
30519;SDS011;17300;50.374;8.006;2022-09-16T05:34:36;1.30;;;1.20;;
30519;SDS011;17300;50.374;8.006;2022-09-16T05:37:03;3.90;;;1.23;;
30519;SDS011;17300;50.374;8.006;2022-09-16T05:39:30;1.23;;;1.00;;
30519;SDS011;17300;50.374;8.006;2022-09-16T05:41:57;2.23;;;0.90;;
30519;SDS011;17300;50.374;8.006;2022-09-16T05:44:25;2.70;;;1.00;;
30519;SDS011;17300;50.374;8.006;2022-09-16T05:46:53;1.60;;;1.00;;
30519;SDS011;17300;50.374;8.006;2022-09-16T05:49:20;1.40;;;1.13;;
30519;SDS011;17300;50.374;8.006;2022-09-16T05:51:48;3.53;;;0.90;;
30519;SDS011;17300;50.374;8.006;2022-09-16T05:54:16;2.13;;;1.10;;
30519;SDS011;17300;50.374;8.006;2022-09-16T05:56:43;1.63;;;1.03;;
30519;SDS011;17300;50.374;8.006;2022-09-16T05:59:11;1.20;;;0.87;;
30519;SDS011;17300;50.374;8.006;2022-09-16T06:01:40;2.00;;;1.10;;
30519;SDS011;17300;50.374;8.006;2022-09-16T06:04:08;1.00;;;0.70;;
30519;SDS011;17300;50.374;8.006;2022-09-16T06:06:37;2.07;;;0.87;;
30519;SDS011;17300;50.374;8.006;2022-09-16T06:09:07;3.03;;;1.20;;
30519;SDS011;17300;50.374;8.006;2022-09-16T06:11:37;2.80;;;1.10;;
30519;SDS011;17300;50.374;8.006;2022-09-16T06:14:05;2.33;;;0.80;;
30519;SDS011;17300;50.374;8.006;2022-09-16T06:16:33;1.50;;;0.87;;
30519;SDS011;17300;50.374;8.006;2022-09-16T06:19:00;1.33;;;1.00;;
30519;SDS011;17300;50.374;8.006;2022-09-16T06:21:30;1.47;;;0.90;;
30519;SDS011;17300;50.374;8.006;2022-09-16T06:23:56;3.83;;;1.30;;
30519;SDS011;17300;50.374;8.006;2022-09-16T06:26:25;3.30;;;0.80;;
30519;SDS011;17300;50.374;8.006;2022-09-16T06:28:52;2.57;;;0.90;;
30519;SDS011;17300;50.374;8.006;2022-09-16T06:31:21;1.23;;;1.13;;
30519;SDS011;17300;50.374;8.006;2022-09-16T06:33:48;1.40;;;0.87;;
30519;SDS011;17300;50.374;8.006;2022-09-16T06:36:16;1.70;;;0.90;;
30519;SDS011;17300;50.374;8.006;2022-09-16T06:38:44;2.23;;;0.80;;
30519;SDS011;17300;50.374;8.006;2022-09-16T06:41:12;1.43;;;0.70;;
30519;SDS011;17300;50.374;8.006;2022-09-16T06:43:41;1.33;;;0.80;;
30519;SDS011;17300;50.374;8.006;2022-09-16T06:46:09;1.97;;;1.00;;
30519;SDS011;17300;50.374;8.006;2022-09-16T06:48:40;1.83;;;0.90;;
30519;SDS011;17300;50.374;8.006;2022-09-16T06:51:08;2.53;;;1.27;;
30519;SDS011;17300;50.374;8.006;2022-09-16T06:53:36;1.77;;;0.90;;
30519;SDS011;17300;50.374;8.006;2022-09-16T06:56:06;1.57;;;0.97;;
30519;SDS011;17300;50.374;8.006;2022-09-16T06:58:35;1.23;;;1.03;;
30519;SDS011;17300;50.374;8.006;2022-09-16T07:01:05;3.10;;;1.20;;
30519;SDS011;17300;50.374;8.006;2022-09-16T07:03:32;3.47;;;1.40;;
30519;SDS011;17300;50.374;8.006;2022-09-16T07:06:02;2.07;;;0.90;;
30519;SDS011;17300;50.374;8.006;2022-09-16T07:08:29;2.07;;;0.97;;
30519;SDS011;17300;50.374;8.006;2022-09-16T07:10:57;2.42;;;0.90;;
30519;SDS011;17300;50.374;8.006;2022-09-16T07:13:24;1.85;;;0.80;;
30519;SDS011;17300;50.374;8.006;2022-09-16T07:15:52;2.58;;;0.93;;
30519;SDS011;17300;50.374;8.006;2022-09-16T07:18:20;1.50;;;1.00;;
30519;SDS011;17300;50.374;8.006;2022-09-16T07:20:47;2.00;;;0.80;;
30519;SDS011;17300;50.374;8.006;2022-09-16T07:23:14;1.40;;;0.90;;
30519;SDS011;17300;50.374;8.006;2022-09-16T07:25:41;0.88;;;0.70;;
30519;SDS011;17300;50.374;8.006;2022-09-16T07:28:08;1.30;;;0.77;;
30519;SDS011;17300;50.374;8.006;2022-09-16T07:30:34;1.10;;;0.60;;
30519;SDS011;17300;50.374;8.006;2022-09-16T07:33:01;1.70;;;0.88;;
30519;SDS011;17300;50.374;8.006;2022-09-16T07:35:29;2.50;;;0.80;;
30519;SDS011;17300;50.374;8.006;2022-09-16T07:37:56;2.25;;;0.80;;
30519;SDS011;17300;50.374;8.006;2022-09-16T07:40:25;2.42;;;0.82;;
30519;SDS011;17300;50.374;8.006;2022-09-16T07:42:52;1.52;;;0.75;;
30519;SDS011;17300;50.374;8.006;2022-09-16T07:45:19;2.00;;;0.80;;
30519;SDS011;17300;50.374;8.006;2022-09-16T07:47:47;1.67;;;0.80;;
30519;SDS011;17300;50.374;8.006;2022-09-16T07:50:14;1.33;;;0.85;;
30519;SDS011;17300;50.374;8.006;2022-09-16T07:52:42;1.55;;;0.85;;
30519;SDS011;17300;50.374;8.006;2022-09-16T07:55:10;1.35;;;0.90;;
30519;SDS011;17300;50.374;8.006;2022-09-16T07:57:39;1.67;;;0.65;;
30519;SDS011;17300;50.374;8.006;2022-09-16T08:00:07;2.55;;;0.80;;
30519;SDS011;17300;50.374;8.006;2022-09-16T08:02:34;1.65;;;0.60;;
30519;SDS011;17300;50.374;8.006;2022-09-16T08:05:01;4.22;;;2.80;;
30519;SDS011;17300;50.374;8.006;2022-09-16T08:07:28;3.50;;;2.42;;
30519;SDS011;17300;50.374;8.006;2022-09-16T08:09:56;2.22;;;1.60;;
30519;SDS011;17300;50.374;8.006;2022-09-16T08:12:22;1.02;;;0.90;;
30519;SDS011;17300;50.374;8.006;2022-09-16T08:14:49;1.95;;;1.33;;
30519;SDS011;17300;50.374;8.006;2022-09-16T08:17:16;1.58;;;1.42;;
30519;SDS011;17300;50.374;8.006;2022-09-16T08:19:42;1.60;;;1.00;;
30519;SDS011;17300;50.374;8.006;2022-09-16T08:22:09;1.95;;;0.88;;
30519;SDS011;17300;50.374;8.006;2022-09-16T08:24:36;2.90;;;0.82;;
30519;SDS011;17300;50.374;8.006;2022-09-16T08:27:04;1.85;;;0.80;;
30519;SDS011;17300;50.374;8.006;2022-09-16T08:29:31;1.95;;;0.77;;
30519;SDS011;17300;50.374;8.006;2022-09-16T08:31:57;1.15;;;0.60;;
30519;SDS011;17300;50.374;8.006;2022-09-16T08:34:24;1.42;;;0.60;;
30519;SDS011;17300;50.374;8.006;2022-09-16T08:36:51;1.38;;;0.80;;
30519;SDS011;17300;50.374;8.006;2022-09-16T08:39:18;0.65;;;0.50;;
30519;SDS011;17300;50.374;8.006;2022-09-16T08:41:57;1.65;;;0.65;;
30519;SDS011;17300;50.374;8.006;2022-09-16T08:44:37;1.45;;;0.73;;
30519;SDS011;17300;50.374;8.006;2022-09-16T08:47:13;1.30;;;0.70;;
30519;SDS011;17300;50.374;8.006;2022-09-16T08:49:48;0.77;;;0.70;;
30519;SDS011;17300;50.374;8.006;2022-09-16T08:52:17;1.38;;;0.60;;
30519;SDS011;17300;50.374;8.006;2022-09-16T08:54:53;1.17;;;0.60;;
30519;SDS011;17300;50.374;8.006;2022-09-16T08:57:25;0.90;;;0.70;;
30519;SDS011;17300;50.374;8.006;2022-09-16T08:59:56;2.90;;;0.63;;
30519;SDS011;17300;50.374;8.006;2022-09-16T09:02:27;1.23;;;0.52;;
30519;SDS011;17300;50.374;8.006;2022-09-16T09:05:08;0.93;;;0.65;;
30519;SDS011;17300;50.374;8.006;2022-09-16T09:07:44;1.30;;;0.70;;
30519;SDS011;17300;50.374;8.006;2022-09-16T09:10:21;2.20;;;0.70;;
30519;SDS011;17300;50.374;8.006;2022-09-16T09:12:56;3.75;;;1.05;;
30519;SDS011;17300;50.374;8.006;2022-09-16T09:15:33;1.10;;;0.70;;
30519;SDS011;17300;50.374;8.006;2022-09-16T09:18:10;1.60;;;0.80;;
30519;SDS011;17300;50.374;8.006;2022-09-16T09:20:48;2.73;;;0.90;;
30519;SDS011;17300;50.374;8.006;2022-09-16T09:23:23;1.20;;;0.60;;
30519;SDS011;17300;50.374;8.006;2022-09-16T09:26:01;1.57;;;0.63;;
30519;SDS011;17300;50.374;8.006;2022-09-16T09:28:44;1.20;;;0.50;;
30519;SDS011;17300;50.374;8.006;2022-09-16T09:31:22;1.73;;;0.60;;
30519;SDS011;17300;50.374;8.006;2022-09-16T09:33:55;0.80;;;0.60;;
30519;SDS011;17300;50.374;8.006;2022-09-16T09:36:40;1.10;;;0.70;;
30519;SDS011;17300;50.374;8.006;2022-09-16T09:42:08;2.05;;;0.60;;
30519;SDS011;17300;50.374;8.006;2022-09-16T09:44:44;2.90;;;0.80;;
30519;SDS011;17300;50.374;8.006;2022-09-16T09:47:14;0.75;;;0.40;;
30519;SDS011;17300;50.374;8.006;2022-09-16T09:49:47;0.60;;;0.40;;
30519;SDS011;17300;50.374;8.006;2022-09-16T09:52:18;0.80;;;0.55;;
30519;SDS011;17300;50.374;8.006;2022-09-16T09:54:48;0.95;;;0.40;;
30519;SDS011;17300;50.374;8.006;2022-09-16T09:57:25;1.48;;;0.68;;
30519;SDS011;17300;50.374;8.006;2022-09-16T09:59:59;1.52;;;0.60;;
30519;SDS011;17300;50.374;8.006;2022-09-16T10:02:30;1.27;;;0.60;;
30519;SDS011;17300;50.374;8.006;2022-09-16T10:04:56;1.63;;;0.50;;
30519;SDS011;17300;50.374;8.006;2022-09-16T10:07:25;1.23;;;0.70;;
30519;SDS011;17300;50.374;8.006;2022-09-16T10:09:54;1.58;;;0.60;;
30519;SDS011;17300;50.374;8.006;2022-09-16T10:12:28;0.57;;;0.47;;
30519;SDS011;17300;50.374;8.006;2022-09-16T10:14:59;0.93;;;0.70;;
30519;SDS011;17300;50.374;8.006;2022-09-16T10:17:26;0.57;;;0.40;;
30519;SDS011;17300;50.374;8.006;2022-09-16T10:19:56;1.55;;;0.50;;
30519;SDS011;17300;50.374;8.006;2022-09-16T10:22:25;0.90;;;0.50;;
30519;SDS011;17300;50.374;8.006;2022-09-16T10:24:55;1.45;;;0.52;;
30519;SDS011;17300;50.374;8.006;2022-09-16T10:27:24;1.02;;;0.70;;
30519;SDS011;17300;50.374;8.006;2022-09-16T10:30:03;0.68;;;0.68;;
30519;SDS011;17300;50.374;8.006;2022-09-16T10:32:43;1.58;;;0.50;;
30519;SDS011;17300;50.374;8.006;2022-09-16T10:35:14;0.95;;;0.40;;
30519;SDS011;17300;50.374;8.006;2022-09-16T10:37:46;1.50;;;0.60;;
30519;SDS011;17300;50.374;8.006;2022-09-16T10:40:17;0.75;;;0.50;;
30519;SDS011;17300;50.374;8.006;2022-09-16T10:42:46;1.20;;;0.60;;
30519;SDS011;17300;50.374;8.006;2022-09-16T10:45:17;0.88;;;0.57;;
30519;SDS011;17300;50.374;8.006;2022-09-16T10:47:56;0.55;;;0.35;;
30519;SDS011;17300;50.374;8.006;2022-09-16T10:50:26;0.82;;;0.45;;
30519;SDS011;17300;50.374;8.006;2022-09-16T10:52:53;1.27;;;0.60;;
30519;SDS011;17300;50.374;8.006;2022-09-16T10:55:24;0.83;;;0.60;;
30519;SDS011;17300;50.374;8.006;2022-09-16T10:57:53;1.63;;;0.50;;
30519;SDS011;17300;50.374;8.006;2022-09-16T11:00:34;1.07;;;0.50;;
30519;SDS011;17300;50.374;8.006;2022-09-16T11:06:16;0.87;;;0.40;;
30519;SDS011;17300;50.374;8.006;2022-09-16T11:08:53;0.83;;;0.60;;
30519;SDS011;17300;50.374;8.006;2022-09-16T11:11:32;0.70;;;0.40;;
30519;SDS011;17300;50.374;8.006;2022-09-16T11:14:14;1.83;;;0.50;;
30519;SDS011;17300;50.374;8.006;2022-09-16T11:17:04;1.10;;;0.60;;
30519;SDS011;17300;50.374;8.006;2022-09-16T11:19:47;1.43;;;0.50;;
30519;SDS011;17300;50.374;8.006;2022-09-16T11:22:31;0.80;;;0.60;;
30519;SDS011;17300;50.374;8.006;2022-09-16T11:27:53;1.15;;;0.60;;
30519;SDS011;17300;50.374;8.006;2022-09-16T11:30:28;0.30;;;0.30;;
30519;SDS011;17300;50.374;8.006;2022-09-16T11:33:05;0.43;;;0.32;;
30519;SDS011;17300;50.374;8.006;2022-09-16T11:35:43;0.75;;;0.40;;
30519;SDS011;17300;50.374;8.006;2022-09-16T11:38:33;1.38;;;0.50;;
30519;SDS011;17300;50.374;8.006;2022-09-16T11:41:07;1.35;;;0.50;;
30519;SDS011;17300;50.374;8.006;2022-09-16T11:43:43;1.00;;;0.65;;
30519;SDS011;17300;50.374;8.006;2022-09-16T11:46:24;0.57;;;0.40;;
30519;SDS011;17300;50.374;8.006;2022-09-16T11:49:05;0.68;;;0.40;;
30519;SDS011;17300;50.374;8.006;2022-09-16T11:51:50;0.70;;;0.50;;
30519;SDS011;17300;50.374;8.006;2022-09-16T11:57:33;1.05;;;0.60;;
30519;SDS011;17300;50.374;8.006;2022-09-16T12:00:04;0.65;;;0.40;;
30519;SDS011;17300;50.374;8.006;2022-09-16T12:02:34;0.55;;;0.30;;
30519;SDS011;17300;50.374;8.006;2022-09-16T12:05:11;0.93;;;0.50;;
30519;SDS011;17300;50.374;8.006;2022-09-16T12:07:42;1.05;;;0.60;;
30519;SDS011;17300;50.374;8.006;2022-09-16T12:10:15;1.17;;;0.40;;
30519;SDS011;17300;50.374;8.006;2022-09-16T12:12:48;0.83;;;0.53;;
30519;SDS011;17300;50.374;8.006;2022-09-16T12:15:18;0.67;;;0.53;;
30519;SDS011;17300;50.374;8.006;2022-09-16T12:17:50;1.27;;;0.30;;
30519;SDS011;17300;50.374;8.006;2022-09-16T12:20:22;1.03;;;0.60;;
30519;SDS011;17300;50.374;8.006;2022-09-16T12:22:51;0.50;;;0.40;;
30519;SDS011;17300;50.374;8.006;2022-09-16T12:25:24;0.67;;;0.40;;
30519;SDS011;17300;50.374;8.006;2022-09-16T12:27:55;0.93;;;0.40;;
30519;SDS011;17300;50.374;8.006;2022-09-16T12:30:26;0.40;;;0.40;;
30519;SDS011;17300;50.374;8.006;2022-09-16T12:32:58;0.67;;;0.53;;
30519;SDS011;17300;50.374;8.006;2022-09-16T12:35:33;1.00;;;0.70;;
30519;SDS011;17300;50.374;8.006;2022-09-16T12:38:03;0.70;;;0.40;;
30519;SDS011;17300;50.374;8.006;2022-09-16T12:40:33;1.70;;;0.83;;
30519;SDS011;17300;50.374;8.006;2022-09-16T12:43:16;0.50;;;0.43;;
30519;SDS011;17300;50.374;8.006;2022-09-16T12:46:06;0.80;;;0.50;;
30519;SDS011;17300;50.374;8.006;2022-09-16T12:48:58;0.40;;;0.40;;
30519;SDS011;17300;50.374;8.006;2022-09-16T12:51:54;0.97;;;0.40;;
30519;SDS011;17300;50.374;8.006;2022-09-16T12:54:41;1.30;;;0.40;;
30519;SDS011;17300;50.374;8.006;2022-09-16T12:57:23;0.60;;;0.40;;
30519;SDS011;17300;50.374;8.006;2022-09-16T13:00:08;0.93;;;0.30;;
30519;SDS011;17300;50.374;8.006;2022-09-16T13:02:40;0.77;;;0.40;;
30519;SDS011;17300;50.374;8.006;2022-09-16T13:05:19;0.27;;;0.20;;
30519;SDS011;17300;50.374;8.006;2022-09-16T13:07:51;0.57;;;0.30;;
30519;SDS011;17300;50.374;8.006;2022-09-16T13:10:22;1.33;;;0.33;;
30519;SDS011;17300;50.374;8.006;2022-09-16T13:12:52;1.27;;;0.50;;
30519;SDS011;17300;50.374;8.006;2022-09-16T13:15:23;0.63;;;0.40;;
30519;SDS011;17300;50.374;8.006;2022-09-16T13:17:52;0.70;;;0.50;;
30519;SDS011;17300;50.374;8.006;2022-09-16T13:20:21;0.47;;;0.30;;
30519;SDS011;17300;50.374;8.006;2022-09-16T13:22:58;1.23;;;0.60;;
30519;SDS011;17300;50.374;8.006;2022-09-16T13:25:31;1.43;;;0.40;;
30519;SDS011;17300;50.374;8.006;2022-09-16T13:28:02;0.77;;;0.30;;
30519;SDS011;17300;50.374;8.006;2022-09-16T13:30:47;0.47;;;0.30;;
30519;SDS011;17300;50.374;8.006;2022-09-16T13:33:21;1.30;;;0.57;;
30519;SDS011;17300;50.374;8.006;2022-09-16T13:36:02;0.40;;;0.40;;
30519;SDS011;17300;50.374;8.006;2022-09-16T13:38:42;1.03;;;0.50;;
30519;SDS011;17300;50.374;8.006;2022-09-16T13:41:11;1.00;;;0.53;;
30519;SDS011;17300;50.374;8.006;2022-09-16T13:43:49;1.10;;;0.70;;
30519;SDS011;17300;50.374;8.006;2022-09-16T13:46:25;0.63;;;0.50;;
30519;SDS011;17300;50.374;8.006;2022-09-16T13:48:56;1.27;;;0.50;;
30519;SDS011;17300;50.374;8.006;2022-09-16T13:51:31;0.50;;;0.33;;
30519;SDS011;17300;50.374;8.006;2022-09-16T13:54:12;0.67;;;0.30;;
30519;SDS011;17300;50.374;8.006;2022-09-16T13:56:47;0.20;;;0.20;;
30519;SDS011;17300;50.374;8.006;2022-09-16T13:59:28;0.40;;;0.40;;
30519;SDS011;17300;50.374;8.006;2022-09-16T14:02:11;0.20;;;0.20;;
30519;SDS011;17300;50.374;8.006;2022-09-16T14:07:41;0.43;;;0.40;;
30519;SDS011;17300;50.374;8.006;2022-09-16T14:10:18;1.57;;;0.60;;
30519;SDS011;17300;50.374;8.006;2022-09-16T14:12:55;0.77;;;0.40;;
30519;SDS011;17300;50.374;8.006;2022-09-16T14:15:26;1.73;;;0.30;;
30519;SDS011;17300;50.374;8.006;2022-09-16T14:17:59;1.07;;;0.70;;
30519;SDS011;17300;50.374;8.006;2022-09-16T14:20:28;1.20;;;0.40;;
30519;SDS011;17300;50.374;8.006;2022-09-16T14:23:01;0.83;;;0.40;;
30519;SDS011;17300;50.374;8.006;2022-09-16T14:25:31;0.27;;;0.27;;
30519;SDS011;17300;50.374;8.006;2022-09-16T14:28:07;0.90;;;0.37;;
30519;SDS011;17300;50.374;8.006;2022-09-16T14:30:46;0.60;;;0.23;;
30519;SDS011;17300;50.374;8.006;2022-09-16T14:33:14;0.20;;;0.20;;
30519;SDS011;17300;50.374;8.006;2022-09-16T14:35:41;0.20;;;0.20;;
30519;SDS011;17300;50.374;8.006;2022-09-16T14:38:11;0.40;;;0.20;;
30519;SDS011;17300;50.374;8.006;2022-09-16T14:40:42;0.50;;;0.23;;
30519;SDS011;17300;50.374;8.006;2022-09-16T14:43:11;0.50;;;0.40;;
30519;SDS011;17300;50.374;8.006;2022-09-16T14:45:43;0.47;;;0.30;;
30519;SDS011;17300;50.374;8.006;2022-09-16T14:48:12;0.53;;;0.30;;
30519;SDS011;17300;50.374;8.006;2022-09-16T14:50:43;1.33;;;0.30;;
30519;SDS011;17300;50.374;8.006;2022-09-16T14:53:21;0.40;;;0.30;;
30519;SDS011;17300;50.374;8.006;2022-09-16T14:56:05;0.20;;;0.20;;
30519;SDS011;17300;50.374;8.006;2022-09-16T14:58:58;0.43;;;0.30;;
30519;SDS011;17300;50.374;8.006;2022-09-16T15:05:18;0.30;;;0.30;;
30519;SDS011;17300;50.374;8.006;2022-09-16T15:07:51;0.70;;;0.40;;
30519;SDS011;17300;50.374;8.006;2022-09-16T15:10:24;0.60;;;0.50;;
30519;SDS011;17300;50.374;8.006;2022-09-16T15:12:54;0.70;;;0.20;;
30519;SDS011;17300;50.374;8.006;2022-09-16T15:15:24;0.33;;;0.30;;
30519;SDS011;17300;50.374;8.006;2022-09-16T15:17:52;0.30;;;0.30;;
30519;SDS011;17300;50.374;8.006;2022-09-16T15:20:23;1.03;;;0.27;;
30519;SDS011;17300;50.374;8.006;2022-09-16T15:22:51;0.30;;;0.30;;
30519;SDS011;17300;50.374;8.006;2022-09-16T15:25:18;0.70;;;0.30;;
30519;SDS011;17300;50.374;8.006;2022-09-16T15:27:47;0.60;;;0.33;;
30519;SDS011;17300;50.374;8.006;2022-09-16T15:30:21;0.33;;;0.20;;
30519;SDS011;17300;50.374;8.006;2022-09-16T15:32:49;0.67;;;0.20;;
30519;SDS011;17300;50.374;8.006;2022-09-16T15:35:20;0.40;;;0.30;;
30519;SDS011;17300;50.374;8.006;2022-09-16T15:37:48;1.60;;;0.40;;